Time,TemperatureF,DewpointF,PressureIn,WindDirection,WindDirectionDegrees,WindSpeedMPH,WindSpeedGustMPH,Humidity,HourlyPrecipIn,Conditions,Clouds,dailyrainin,SoftwareType,DateUTC
2013-07-29 00:26:00,80.4,76.0,29.93,ESE,103,4.0,9.0,86,0.00,,,0.00,weatherlink.com 1.10,2013-07-29 04:26:00,
2013-07-29 00:42:00,80.3,76.0,29.93,East,93,7.0,10.0,86,0.00,,,0.00,weatherlink.com 1.10,2013-07-29 04:42:00,
2013-07-29 00:57:00,80.3,76.0,29.93,ESE,110,5.0,10.0,86,0.00,,,0.00,weatherlink.com 1.10,2013-07-29 04:57:00,
2013-07-29 01:12:00,80.5,76.0,29.92,East,84,8.0,9.0,86,0.00,,,0.00,weatherlink.com 1.10,2013-07-29 05:12:00,
2013-07-29 01:27:00,80.4,76.0,29.92,ESE,104,4.0,8.0,87,0.00,,,0.00,weatherlink.com 1.10,2013-07-29 05:27:00,
2013-07-29 01:42:00,80.4,76.0,29.92,ENE,61,9.0,11.0,87,0.00,,,0.00,weatherlink.com 1.10,2013-07-29 05:42:00,
2013-07-29 01:57:00,80.4,76.0,29.92,East,96,3.0,11.0,87,0.00,,,0.00,weatherlink.com 1.10,2013-07-29 05:57:00,
2013-07-29 02:12:00,80.4,76.0,29.91,East,80,8.0,12.0,86,0.00,,,0.00,weatherlink.com 1.10,2013-07-29 06:12:00,
2013-07-29 02:27:00,80.3,76.0,29.91,SE,126,5.0,13.0,86,0.00,,,0.00,weatherlink.com 1.10,2013-07-29 06:27:00,
2013-07-29 02:42:00,80.2,76.0,29.91,ENE,66,3.0,10.0,87,0.00,,,0.00,weatherlink.com 1.10,2013-07-29 06:42:00,
2013-07-29 02:57:00,80.1,76.0,29.90,East,86,5.0,10.0,87,0.00,,,0.00,weatherlink.com 1.10,2013-07-29 06:57:00,
2013-07-29 03:12:00,80.2,76.0,29.90,ENE,78,8.0,10.0,87,0.00,,,0.00,weatherlink.com 1.10,2013-07-29 07:12:00,
2013-07-29 03:27:00,80.1,76.0,29.90,East,83,5.0,10.0,87,0.00,,,0.00,weatherlink.com 1.10,2013-07-29 07:27:00,
2013-07-29 03:42:00,80.1,76.0,29.90,ENE,59,4.0,9.0,88,0.00,,,0.00,weatherlink.com 1.10,2013-07-29 07:42:00,
2013-07-29 03:57:00,80.1,76.0,29.89,East,85,7.0,13.0,87,0.00,,,0.00,weatherlink.com 1.10,2013-07-29 07:57:00,
2013-07-29 04:12:00,80.1,76.0,29.89,East,94,7.0,10.0,87,0.00,,,0.00,weatherlink.com 1.10,2013-07-29 08:12:00,
2013-07-29 04:27:00,80.1,76.0,29.89,East,80,8.0,12.0,86,0.00,,,0.00,weatherlink.com 1.10,2013-07-29 08:27:00,
2013-07-29 04:42:00,80.2,76.0,29.89,East,91,7.0,10.0,87,0.00,,,0.00,weatherlink.com 1.10,2013-07-29 08:42:00,
2013-07-29 04:57:00,80.1,76.0,29.89,ENE,77,2.0,11.0,87,0.00,,,0.00,weatherlink.com 1.10,2013-07-29 08:57:00,
2013-07-29 05:12:00,80.2,76.0,29.90,ENE,70,7.0,12.0,86,0.00,,,0.00,weatherlink.com 1.10,2013-07-29 09:12:00,
2013-07-29 05:27:00,80.3,76.0,29.90,ESE,108,5.0,11.0,86,0.00,,,0.00,weatherlink.com 1.10,2013-07-29 09:27:00,
2013-07-29 05:42:00,80.3,76.0,29.91,East,100,5.0,10.0,86,0.00,,,0.00,weatherlink.com 1.10,2013-07-29 09:42:00,
2013-07-29 05:57:00,80.4,76.0,29.91,East,86,2.0,13.0,86,0.00,,,0.00,weatherlink.com 1.10,2013-07-29 09:57:00,
2013-07-29 06:12:00,80.4,76.0,29.91,ESE,114,3.0,10.0,85,0.00,,,0.00,weatherlink.com 1.10,2013-07-29 10:12:00,
2013-07-29 06:42:00,80.7,76.0,29.92,ESE,118,1.0,10.0,86,0.00,,,0.00,weatherlink.com 1.10,2013-07-29 10:42:00,
2013-07-29 06:57:00,81.3,77.0,29.92,East,97,5.0,13.0,85,0.00,,,0.00,weatherlink.com 1.10,2013-07-29 10:57:00,
2013-07-29 07:12:00,81.5,77.0,29.93,SE,140,4.0,11.0,85,0.00,,,0.00,weatherlink.com 1.10,2013-07-29 11:12:00,
2013-07-29 07:27:00,82.3,77.0,29.93,SE,132,10.0,13.0,84,0.00,,,0.00,weatherlink.com 1.10,2013-07-29 11:27:00,
2013-07-29 07:57:00,82.3,77.0,29.93,ENE,75,7.0,15.0,83,0.00,,,0.00,weatherlink.com 1.10,2013-07-29 11:57:00,
2013-07-29 08:12:00,82.7,77.0,29.94,SE,143,3.0,15.0,82,0.00,,,0.00,weatherlink.com 1.10,2013-07-29 12:12:00,
2013-07-29 08:28:00,84.0,77.0,29.94,East,94,15.0,17.0,78,0.00,,,0.00,weatherlink.com 1.10,2013-07-29 12:28:00,
2013-07-29 08:43:00,84.3,77.0,29.95,ESE,108,4.0,14.0,78,0.00,,,0.00,weatherlink.com 1.10,2013-07-29 12:43:00,
2013-07-29 09:13:00,84.5,77.0,29.94,ESE,104,9.0,14.0,78,0.00,,,0.00,weatherlink.com 1.10,2013-07-29 13:13:00,
2013-07-29 09:28:00,84.7,77.0,29.95,ENE,59,9.0,18.0,77,0.00,,,0.00,weatherlink.com 1.10,2013-07-29 13:28:00,
2013-07-29 09:43:00,85.9,78.0,29.95,NE,46,10.0,16.0,76,0.00,,,0.00,weatherlink.com 1.10,2013-07-29 13:43:00,
2013-07-29 10:13:00,86.3,78.0,29.96,ENE,69,12.0,17.0,76,0.00,,,0.00,weatherlink.com 1.10,2013-07-29 14:13:00,
2013-07-29 10:28:00,86.1,78.0,29.96,NE,40,8.0,17.0,76,0.00,,,0.00,weatherlink.com 1.10,2013-07-29 14:28:00,
2013-07-29 10:43:00,85.9,78.0,29.95,ESE,119,5.0,17.0,77,0.00,,,0.00,weatherlink.com 1.10,2013-07-29 14:43:00,
2013-07-29 10:58:00,86.2,78.0,29.96,East,91,9.0,16.0,76,0.00,,,0.00,weatherlink.com 1.10,2013-07-29 14:58:00,
2013-07-29 11:13:00,87.2,78.0,29.96,ESE,119,5.0,16.0,75,0.00,,,0.00,weatherlink.com 1.10,2013-07-29 15:13:00,
2013-07-29 11:28:00,86.8,78.0,29.96,ESE,119,11.0,18.0,76,0.00,,,0.00,weatherlink.com 1.10,2013-07-29 15:28:00,
2013-07-29 11:43:00,86.1,78.0,29.95,SE,126,16.0,21.0,76,0.00,,,0.00,weatherlink.com 1.10,2013-07-29 15:43:00,
2013-07-29 11:58:00,87.1,78.0,29.95,SE,126,3.0,18.0,75,0.00,,,0.00,weatherlink.com 1.10,2013-07-29 15:58:00,
2013-07-29 12:13:00,86.6,78.0,29.95,ESE,105,14.0,19.0,75,0.00,,,0.00,weatherlink.com 1.10,2013-07-29 16:13:00,
2013-07-29 12:43:00,86.7,78.0,29.94,ESE,114,7.0,17.0,75,0.00,,,0.00,weatherlink.com 1.10,2013-07-29 16:43:00,
2013-07-29 13:13:00,87.2,78.0,29.93,ESE,102,3.0,22.0,74,0.00,,,0.00,weatherlink.com 1.10,2013-07-29 17:13:00,
2013-07-29 13:28:00,87.5,78.0,29.92,ESE,107,9.0,17.0,73,0.00,,,0.00,weatherlink.com 1.10,2013-07-29 17:28:00,
2013-07-29 13:43:00,86.8,78.0,29.91,SE,132,4.0,17.0,76,0.00,,,0.00,weatherlink.com 1.10,2013-07-29 17:43:00,
2013-07-29 13:58:00,85.9,78.0,29.91,East,100,8.0,15.0,77,0.00,,,0.00,weatherlink.com 1.10,2013-07-29 17:58:00,
2013-07-29 14:13:00,86.2,78.0,29.91,NE,42,8.0,16.0,76,0.00,,,0.00,weatherlink.com 1.10,2013-07-29 18:13:00,
2013-07-29 14:28:00,86.6,77.0,29.91,SE,131,5.0,17.0,74,0.00,,,0.00,weatherlink.com 1.10,2013-07-29 18:28:00,
2013-07-29 14:43:00,86.8,78.0,29.90,ENE,57,7.0,17.0,75,0.00,,,0.00,weatherlink.com 1.10,2013-07-29 18:43:00,
2013-07-29 14:58:00,86.7,78.0,29.89,ENE,69,4.0,18.0,76,0.00,,,0.00,weatherlink.com 1.10,2013-07-29 18:58:00,
2013-07-29 15:13:00,86.4,78.0,29.89,East,83,13.0,14.0,76,0.00,,,0.00,weatherlink.com 1.10,2013-07-29 19:13:00,
2013-07-29 15:43:00,86.0,77.0,29.88,ESE,109,12.0,18.0,75,0.00,,,0.00,weatherlink.com 1.10,2013-07-29 19:43:00,
2013-07-29 15:58:00,85.9,78.0,29.88,East,92,13.0,15.0,77,0.00,,,0.00,weatherlink.com 1.10,2013-07-29 19:58:00,
2013-07-29 16:28:00,85.6,78.0,29.88,ESE,113,5.0,15.0,77,0.00,,,0.00,weatherlink.com 1.10,2013-07-29 20:28:00,
2013-07-29 16:43:00,84.9,77.0,29.87,East,86,11.0,17.0,78,0.00,,,0.00,weatherlink.com 1.10,2013-07-29 20:43:00,
2013-07-29 16:58:00,84.8,77.0,29.87,ENE,73,8.0,17.0,78,0.00,,,0.00,weatherlink.com 1.10,2013-07-29 20:58:00,
2013-07-29 17:13:00,84.9,77.0,29.87,East,101,14.0,16.0,78,0.00,,,0.00,weatherlink.com 1.10,2013-07-29 21:13:00,
2013-07-29 17:28:00,84.7,78.0,29.87,ENE,73,8.0,16.0,79,0.00,,,0.00,weatherlink.com 1.10,2013-07-29 21:28:00,
2013-07-29 17:58:00,84.6,77.0,29.88,ENE,73,5.0,14.0,78,0.00,,,0.00,weatherlink.com 1.10,2013-07-29 21:58:00,
2013-07-29 18:13:00,84.3,77.0,29.89,East,100,11.0,15.0,79,0.00,,,0.00,weatherlink.com 1.10,2013-07-29 22:13:00,
2013-07-29 18:28:00,83.7,77.0,29.89,East,82,5.0,15.0,79,0.00,,,0.00,weatherlink.com 1.10,2013-07-29 22:28:00,
2013-07-29 18:43:00,83.6,77.0,29.90,ENE,69,4.0,11.0,80,0.00,,,0.00,weatherlink.com 1.10,2013-07-29 22:43:00,
2013-07-29 19:13:00,83.0,77.0,29.91,ESE,107,8.0,12.0,81,0.00,,,0.00,weatherlink.com 1.10,2013-07-29 23:13:00,
2013-07-29 19:28:00,82.8,77.0,29.91,East,89,5.0,14.0,82,0.00,,,0.00,weatherlink.com 1.10,2013-07-29 23:28:00,
2013-07-29 19:43:00,82.6,77.0,29.92,ESE,102,7.0,14.0,82,0.00,,,0.00,weatherlink.com 1.10,2013-07-29 23:43:00,
2013-07-29 20:13:00,82.5,77.0,29.93,SE,131,4.0,13.0,83,0.00,,,0.00,weatherlink.com 1.10,2013-07-30 00:13:00,
2013-07-29 20:28:00,82.3,77.0,29.93,ENE,68,5.0,9.0,83,0.00,,,0.00,weatherlink.com 1.10,2013-07-30 00:28:00,
2013-07-29 20:43:00,82.3,77.0,29.94,ENE,76,5.0,11.0,83,0.00,,,0.00,weatherlink.com 1.10,2013-07-30 00:43:00,
2013-07-29 20:58:00,82.3,77.0,29.94,ESE,106,3.0,14.0,83,0.00,,,0.00,weatherlink.com 1.10,2013-07-30 00:58:00,
2013-07-29 21:13:00,82.3,77.0,29.94,ENE,68,5.0,11.0,83,0.00,,,0.00,weatherlink.com 1.10,2013-07-30 01:13:00,
2013-07-29 21:28:00,82.2,77.0,29.95,ESE,107,1.0,12.0,83,0.00,,,0.00,weatherlink.com 1.10,2013-07-30 01:28:00,
2013-07-29 21:43:00,82.1,77.0,29.95,East,84,5.0,10.0,83,0.00,,,0.00,weatherlink.com 1.10,2013-07-30 01:43:00,
2013-07-29 22:13:00,82.0,76.0,29.96,SE,131,4.0,11.0,83,0.00,,,0.00,weatherlink.com 1.10,2013-07-30 02:13:00,
2013-07-29 22:28:00,82.2,76.0,29.97,East,86,2.0,10.0,80,0.00,,,0.00,weatherlink.com 1.10,2013-07-30 02:28:00,
2013-07-29 22:43:00,82.2,76.0,29.97,SSE,155,5.0,11.0,81,0.00,,,0.00,weatherlink.com 1.10,2013-07-30 02:43:00,
2013-07-29 23:13:00,82.1,77.0,29.97,ESE,108,3.0,14.0,83,0.00,,,0.00,weatherlink.com 1.10,2013-07-30 03:13:00,
2013-07-29 23:28:00,81.9,77.0,29.97,East,94,9.0,12.0,84,0.00,,,0.00,weatherlink.com 1.10,2013-07-30 03:28:00,
2013-07-29 23:43:00,81.8,77.0,29.97,ENE,74,5.0,14.0,85,0.00,,,0.00,weatherlink.com 1.10,2013-07-30 03:43:00,